Time;durP1;ratioP1;P1;durP2;ratioP2;P2;SDS_P1;SDS_P2;PMS_P1;PMS_P2;Temp;Humidity;BMP_temperature;BMP_pressure;BME280_temperature;BME280_humidity;BME280_pressure;Samples;Min_cycle;Max_cycle;Signal;HPM_P1;HPM_P2
2023/01/26 00:01:43;;;;;;;7.65;4.93;;;28.70;99.90;;;;;;5047887;28;20204;-81
2023/01/26 00:04:16;;;;;;;11.07;6.22;;;28.90;99.90;;;;;;5060927;28;20208;-80
2023/01/26 00:06:47;;;;;;;10.75;6.13;;;29.00;99.90;;;;;;5046473;28;20197;-80
2023/01/26 00:09:18;;;;;;;11.75;6.60;;;29.10;99.90;;;;;;5046617;28;20224;-79
2023/01/26 00:11:49;;;;;;;8.52;6.50;;;29.20;99.90;;;;;;5047146;28;20211;-80
2023/01/26 00:14:20;;;;;;;15.15;7.65;;;29.30;99.90;;;;;;5048145;28;20207;-81
2023/01/26 00:16:52;;;;;;;10.43;6.78;;;29.30;99.90;;;;;;5051187;28;20200;-79
2023/01/26 00:19:25;;;;;;;9.18;6.28;;;29.40;99.90;;;;;;5053038;28;20236;-81
2023/01/26 00:21:56;;;;;;;11.75;6.55;;;29.50;99.90;;;;;;5070242;28;20681;-81
2023/01/26 00:24:28;;;;;;;9.63;6.35;;;29.50;99.90;;;;;;5069076;28;20287;-82
2023/01/26 00:26:59;;;;;;;12.65;7.05;;;29.60;99.90;;;;;;5056420;28;20206;-83
2023/01/26 00:29:30;;;;;;;9.80;6.75;;;29.40;99.90;;;;;;5069087;28;20656;-83
2023/01/26 00:32:01;;;;;;;8.90;6.70;;;29.40;99.90;;;;;;5058829;28;20666;-83
2023/01/26 00:34:35;;;;;;;8.18;6.63;;;29.50;99.90;;;;;;5068515;28;20688;-82
2023/01/26 00:37:06;;;;;;;9.90;6.72;;;29.60;99.90;;;;;;5053792;28;20196;-82
2023/01/26 00:39:37;;;;;;;7.03;6.28;;;29.60;99.90;;;;;;5055655;28;20227;-81
2023/01/26 00:42:08;;;;;;;12.30;6.68;;;29.60;99.90;;;;;;5062384;28;20301;-82
2023/01/26 00:44:40;;;;;;;12.98;6.90;;;29.60;99.90;;;;;;5067722;28;20192;-82
2023/01/26 00:47:13;;;;;;;9.13;6.70;;;29.70;99.90;;;;;;5069904;28;20192;-82
2023/01/26 00:49:46;;;;;;;13.10;7.03;;;29.70;99.90;;;;;;5055234;28;20227;-83
2023/01/26 00:52:17;;;;;;;13.55;6.60;;;29.70;99.90;;;;;;5067199;28;20200;-83
2023/01/26 00:54:49;;;;;;;11.25;6.60;;;29.80;99.90;;;;;;5062525;28;21871;-84
2023/01/26 00:57:19;;;;;;;10.73;6.70;;;29.70;99.90;;;;;;5051376;28;20200;-83
2023/01/26 00:59:50;;;;;;;12.18;6.38;;;29.60;99.90;;;;;;5044826;28;20241;-81
2023/01/26 01:02:22;;;;;;;11.25;6.13;;;29.60;99.90;;;;;;5054648;28;20192;-82
2023/01/26 01:04:54;;;;;;;9.63;6.10;;;29.50;99.90;;;;;;5060307;28;20626;-82
2023/01/26 01:07:25;;;;;;;8.60;5.47;;;29.60;99.90;;;;;;5053132;28;20192;-81
2023/01/26 01:09:56;;;;;;;6.78;5.35;;;29.50;99.90;;;;;;5066251;28;20219;-83
2023/01/26 01:12:28;;;;;;;8.25;5.63;;;29.50;99.90;;;;;;5057378;28;20195;-82
2023/01/26 01:15:00;;;;;;;7.85;5.93;;;29.50;99.90;;;;;;5060351;28;20799;-81
2023/01/26 01:17:31;;;;;;;7.85;5.47;;;29.40;99.90;;;;;;5045337;28;20192;-82
2023/01/26 01:20:05;;;;;;;7.43;5.45;;;29.40;99.90;;;;;;5049632;28;20231;-82
2023/01/26 01:22:40;;;;;;;7.93;5.60;;;29.50;99.90;;;;;;5043704;28;20202;-82
2023/01/26 01:25:11;;;;;;;6.97;5.47;;;29.50;99.90;;;;;;5044515;28;20199;-82
2023/01/26 01:27:42;;;;;;;9.30;5.93;;;29.50;99.90;;;;;;5045071;28;20617;-82
2023/01/26 01:30:14;;;;;;;9.30;5.00;;;29.50;99.90;;;;;;5045363;28;20227;-82
2023/01/26 01:32:48;;;;;;;9.32;5.82;;;29.60;99.90;;;;;;5043408;28;20196;-82
2023/01/26 01:35:21;;;;;;;8.60;5.38;;;29.60;99.90;;;;;;5044294;28;20232;-82
2023/01/26 01:37:52;;;;;;;9.95;4.80;;;29.70;99.90;;;;;;5044535;28;20210;-82
2023/01/26 01:40:24;;;;;;;7.88;4.95;;;29.70;99.90;;;;;;5047681;28;20199;-82
2023/01/26 01:42:55;;;;;;;9.35;4.65;;;29.70;99.90;;;;;;5045477;28;20844;-82
2023/01/26 01:45:48;;;;;;;9.80;4.78;;;29.70;99.90;;;;;;5045632;28;20675;-82
2023/01/26 01:48:26;;;;;;;11.50;4.75;;;29.80;99.90;;;;;;5042711;28;20207;-81
2023/01/26 01:51:04;;;;;;;11.88;4.50;;;29.60;99.90;;;;;;5045703;28;20234;-82
2023/01/26 01:53:43;;;;;;;11.52;5.03;;;29.60;99.90;;;;;;5060700;28;20757;-82
2023/01/26 01:56:20;;;;;;;9.02;4.63;;;29.60;99.90;;;;;;5046952;28;20196;-83
2023/01/26 01:58:53;;;;;;;13.38;5.25;;;29.70;99.90;;;;;;5056165;28;20202;-83
2023/01/26 02:01:25;;;;;;;7.97;4.57;;;29.60;99.90;;;;;;5046600;28;20206;-83
2023/01/26 02:03:58;;;;;;;12.02;4.72;;;29.70;99.90;;;;;;5059959;28;20210;-82
2023/01/26 02:06:36;;;;;;;12.65;4.85;;;29.70;99.90;;;;;;5044448;28;20595;-82
2023/01/26 02:10:17;;;;;;;13.35;5.15;;;29.60;99.90;;;;;;5055659;28;20569;-82
2023/01/26 02:12:01;;;;;;;9.43;5.03;;;29.60;99.90;;;;;;5069636;28;20203;-82
2023/01/26 02:14:33;;;;;;;8.45;4.88;;;29.60;99.90;;;;;;5064546;28;20207;-83
2023/01/26 02:17:04;;;;;;;10.00;4.78;;;29.60;99.90;;;;;;5066716;28;20200;-82
2023/01/26 02:19:47;;;;;;;11.98;4.22;;;29.70;99.90;;;;;;5063896;28;20316;-82
2023/01/26 02:22:29;;;;;;;7.05;3.90;;;29.70;99.90;;;;;;5069845;28;20192;-82
2023/01/26 02:25:06;;;;;;;10.27;4.47;;;29.70;99.90;;;;;;5068505;28;20200;-82
2023/01/26 02:27:40;;;;;;;8.85;4.40;;;29.80;99.90;;;;;;5051867;28;20200;-82
2023/01/26 02:30:15;;;;;;;8.38;4.40;;;29.90;99.90;;;;;;5057461;28;20208;-82
2023/01/26 02:32:46;;;;;;;7.78;4.10;;;29.80;99.90;;;;;;5058471;28;20203;-82
2023/01/26 02:35:17;;;;;;;6.72;3.95;;;29.80;99.90;;;;;;5065210;28;20192;-82
2023/01/26 02:37:48;;;;;;;6.85;4.28;;;29.90;99.90;;;;;;5068314;28;20250;-81
2023/01/26 02:40:28;;;;;;;6.18;4.28;;;29.90;99.90;;;;;;5078064;28;20207;-82
2023/01/26 02:43:01;;;;;;;4.70;4.00;;;30.00;99.90;;;;;;5083361;28;20259;-82
2023/01/26 02:45:34;;;;;;;8.00;4.60;;;30.00;99.90;;;;;;5079747;28;20287;-82
2023/01/26 02:48:06;;;;;;;7.80;4.60;;;30.00;99.90;;;;;;5074495;28;20200;-81
2023/01/26 02:50:37;;;;;;;8.02;4.40;;;30.00;99.90;;;;;;5072465;28;20220;-83
2023/01/26 02:53:08;;;;;;;7.95;4.28;;;30.10;99.90;;;;;;5064744;28;20196;-82
2023/01/26 02:55:38;;;;;;;8.15;4.35;;;30.20;99.90;;;;;;5058686;28;20206;-81
2023/01/26 02:58:11;;;;;;;7.85;4.53;;;30.20;99.90;;;;;;5077457;28;20196;-82
2023/01/26 03:00:44;;;;;;;7.38;4.72;;;30.30;99.90;;;;;;5077578;28;20199;-83
2023/01/26 03:03:18;;;;;;;7.53;4.85;;;30.30;99.90;;;;;;5076154;28;20192;-81
2023/01/26 03:05:49;;;;;;;6.82;4.10;;;30.30;99.90;;;;;;5060985;28;20814;-82
2023/01/26 03:08:20;;;;;;;7.65;4.82;;;30.40;99.90;;;;;;5071764;28;20196;-82
2023/01/26 03:10:51;;;;;;;6.68;4.40;;;30.40;99.90;;;;;;5064801;28;20223;-82
2023/01/26 03:13:24;;;;;;;8.05;4.90;;;30.40;99.90;;;;;;5064148;28;20196;-82
2023/01/26 03:16:05;;;;;;;8.48;4.93;;;30.40;99.90;;;;;;5058405;28;20577;-81
2023/01/26 03:27:29;;;;;;;6.85;4.68;;;30.30;99.90;;;;;;4991661;28;20724;-82
2023/01/26 03:30:02;;;;;;;7.10;4.65;;;30.40;99.90;;;;;;4991562;28;20700;-82
2023/01/26 03:32:33;;;;;;;8.77;5.40;;;30.40;99.90;;;;;;5027802;28;20196;-81
2023/01/26 03:35:13;;;;;;;7.72;4.93;;;30.40;99.90;;;;;;5049796;28;20208;-81
2023/01/26 03:37:53;;;;;;;10.50;5.93;;;30.30;99.90;;;;;;5050425;28;20204;-82
2023/01/26 03:57:11;;;;;;;8.30;5.53;;;29.90;99.90;;;;;;5052242;28;21001;-82
2023/01/26 03:59:43;;;;;;;8.80;5.57;;;29.80;99.90;;;;;;5050066;28;20206;-82
2023/01/26 04:10:36;;;;;;;8.85;5.40;;;29.30;99.90;;;;;;5050634;28;20582;-81
2023/01/26 04:21:32;;;;;;;7.75;4.90;;;28.70;99.90;;;;;;5050507;28;20199;-81
2023/01/26 04:24:08;;;;;;;7.35;4.45;;;28.60;99.90;;;;;;5048098;28;20287;-80
2023/01/26 04:26:39;;;;;;;6.57;4.50;;;28.60;99.90;;;;;;5052546;28;20831;-80
2023/01/26 04:29:12;;;;;;;6.65;4.53;;;28.50;99.90;;;;;;5045208;28;20224;-81
2023/01/26 04:31:43;;;;;;;6.97;4.38;;;28.50;99.90;;;;;;5048058;28;20680;-81
2023/01/26 04:34:17;;;;;;;6.03;4.93;;;28.40;99.90;;;;;;5044625;28;20427;-80
2023/01/26 04:36:48;;;;;;;9.35;4.70;;;28.40;99.90;;;;;;5046092;28;20196;-81
2023/01/26 04:39:19;;;;;;;10.73;5.05;;;28.30;99.90;;;;;;5049076;28;20784;-81
2023/01/26 04:41:50;;;;;;;9.35;4.68;;;28.20;99.90;;;;;;5046744;28;22942;-80
2023/01/26 04:44:21;;;;;;;6.60;5.00;;;28.20;99.90;;;;;;5048733;28;20200;-80
2023/01/26 04:46:53;;;;;;;13.45;5.25;;;28.10;99.90;;;;;;5052477;28;20204;-81
2023/01/26 04:49:29;;;;;;;9.50;5.38;;;28.10;99.90;;;;;;5050905;28;20210;-79
2023/01/26 04:52:00;;;;;;;13.32;5.00;;;28.10;99.90;;;;;;5048714;28;21082;-79
2023/01/26 04:54:31;;;;;;;11.57;5.05;;;28.10;99.90;;;;;;5047816;28;20659;-80
2023/01/26 04:57:05;;;;;;;10.52;5.32;;;28.00;99.90;;;;;;5048856;28;23085;-81
2023/01/26 04:59:36;;;;;;;8.18;4.32;;;28.00;99.90;;;;;;5050819;28;20200;-81
2023/01/26 05:02:08;;;;;;;13.25;5.30;;;27.90;99.90;;;;;;5043473;28;20203;-81
2023/01/26 05:04:41;;;;;;;9.50;4.50;;;27.80;99.90;;;;;;5059094;28;20211;-81
2023/01/26 05:07:11;;;;;;;9.95;4.75;;;27.90;99.90;;;;;;5054933;28;20663;-81
2023/01/26 05:09:42;;;;;;;6.82;4.60;;;27.90;99.90;;;;;;5046408;28;20204;-82
2023/01/26 05:15:00;;;;;;;10.18;4.82;;;28.20;99.90;;;;;;5048007;28;20295;-80
2023/01/26 05:17:31;;;;;;;11.02;4.95;;;28.40;99.90;;;;;;5046440;28;21099;-80
2023/01/26 05:20:05;;;;;;;9.38;5.18;;;28.50;99.90;;;;;;5047133;28;20369;-82
2023/01/26 05:22:36;;;;;;;7.53;4.32;;;28.50;99.90;;;;;;5051186;28;20195;-81
2023/01/26 05:25:07;;;;;;;13.38;5.15;;;28.50;99.90;;;;;;5050632;28;20199;-81
2023/01/26 05:27:38;;;;;;;8.90;4.75;;;28.60;99.90;;;;;;5046901;28;20215;-80
2023/01/26 05:30:15;;;;;;;7.55;4.90;;;28.70;99.90;;;;;;5050303;28;20200;-81
2023/01/26 05:32:56;;;;;;;9.05;4.65;;;28.90;99.90;;;;;;5054589;28;20205;-80
2023/01/26 05:35:28;;;;;;;7.80;4.82;;;29.30;99.90;;;;;;5048298;28;20207;-81
2023/01/26 05:37:59;;;;;;;8.70;5.18;;;29.60;99.90;;;;;;5051933;28;20196;-82
2023/01/26 05:40:30;;;;;;;7.50;4.90;;;29.70;99.90;;;;;;5059810;28;20455;-82
2023/01/26 05:43:01;;;;;;;7.18;4.75;;;30.10;99.90;;;;;;5052787;28;20204;-81
2023/01/26 05:45:35;;;;;;;9.27;4.88;;;30.30;99.90;;;;;;5048931;28;20208;-83
2023/01/26 05:48:07;;;;;;;10.32;6.25;;;30.20;99.90;;;;;;5047596;28;20630;-81
2023/01/26 05:50:39;;;;;;;7.65;4.78;;;30.00;99.90;;;;;;5044503;28;20694;-81
2023/01/26 05:53:11;;;;;;;9.77;4.82;;;29.90;99.90;;;;;;5048599;28;20203;-80
2023/01/26 05:55:43;;;;;;;8.25;5.30;;;30.10;99.90;;;;;;5044892;28;20202;-82
2023/01/26 05:58:15;;;;;;;7.40;5.07;;;30.10;99.90;;;;;;5044152;28;20199;-82
2023/01/26 06:00:46;;;;;;;9.57;6.28;;;30.00;99.90;;;;;;5044153;28;20236;-80
2023/01/26 06:03:17;;;;;;;9.85;6.13;;;29.90;99.90;;;;;;5044591;28;20685;-82
2023/01/26 06:05:58;;;;;;;12.73;6.53;;;29.80;99.90;;;;;;5053068;28;20210;-82
2023/01/26 06:08:31;;;;;;;12.48;7.65;;;29.90;99.90;;;;;;5058418;28;20192;-82
2023/01/26 06:11:04;;;;;;;11.20;7.72;;;30.00;99.90;;;;;;5043491;28;20724;-82
2023/01/26 06:13:35;;;;;;;13.75;8.23;;;30.00;99.90;;;;;;5048957;28;20813;-82
2023/01/26 06:16:06;;;;;;;14.60;9.20;;;29.80;99.90;;;;;;5044702;28;20274;-82
2023/01/26 06:18:37;;;;;;;11.57;8.95;;;29.70;99.90;;;;;;5044777;28;20232;-81
2023/01/26 06:21:10;;;;;;;12.88;8.93;;;29.70;99.90;;;;;;5044853;28;20208;-81
2023/01/26 06:23:41;;;;;;;16.13;9.30;;;29.70;99.90;;;;;;5044957;28;20574;-81
2023/01/26 06:26:12;;;;;;;11.52;9.18;;;29.70;99.90;;;;;;5043861;28;20207;-81
2023/01/26 06:28:44;;;;;;;11.35;9.27;;;29.70;99.90;;;;;;5043327;28;20524;-82
2023/01/26 06:31:15;;;;;;;11.43;8.52;;;29.60;99.90;;;;;;5046422;28;20981;-82
2023/01/26 06:33:46;;;;;;;11.18;9.00;;;29.60;99.90;;;;;;5045594;28;20552;-80
2023/01/26 06:36:19;;;;;;;11.20;9.35;;;29.50;99.90;;;;;;5042774;28;20338;-79
2023/01/26 06:38:51;;;;;;;10.70;8.95;;;29.40;99.90;;;;;;5051456;28;20196;-79
2023/01/26 06:41:22;;;;;;;12.57;8.50;;;29.30;99.90;;;;;;5043184;28;20300;-79
2023/01/26 06:43:53;;;;;;;10.13;8.40;;;29.20;99.90;;;;;;5042750;28;20215;-79
2023/01/26 06:46:24;;;;;;;9.02;7.65;;;29.00;99.90;;;;;;5053125;28;20693;-80
2023/01/26 06:48:55;;;;;;;9.68;7.47;;;28.90;99.90;;;;;;5045273;28;20238;-80
2023/01/26 06:52:04;;;;;;;8.55;6.85;;;28.80;99.90;;;;;;5042640;28;22199;-80
2023/01/26 06:54:35;;;;;;;11.13;7.22;;;28.70;99.90;;;;;;4978273;28;20200;-79
2023/01/26 06:57:06;;;;;;;10.60;6.80;;;28.60;99.90;;;;;;5036910;28;20200;-79
2023/01/26 06:59:37;;;;;;;11.60;6.63;;;28.50;99.90;;;;;;5047274;28;20631;-80
2023/01/26 07:02:16;;;;;;;8.88;6.40;;;28.30;99.90;;;;;;5048687;28;20804;-80
2023/01/26 07:04:47;;;;;;;8.70;6.28;;;28.20;99.90;;;;;;5050060;28;20196;-80
2023/01/26 07:07:21;;;;;;;8.30;5.40;;;28.30;99.90;;;;;;5061002;28;20265;-80
2023/01/26 07:09:52;;;;;;;8.80;5.25;;;28.20;99.90;;;;;;5048268;28;20195;-80
2023/01/26 07:12:23;;;;;;;9.65;6.00;;;28.10;99.90;;;;;;5046674;28;20559;-80
2023/01/26 07:14:54;;;;;;;5.03;4.53;;;28.00;99.90;;;;;;5047426;28;20195;-80
2023/01/26 07:17:25;;;;;;;8.35;5.10;;;28.00;99.90;;;;;;5047445;28;20200;-80
2023/01/26 07:19:56;;;;;;;9.63;4.35;;;28.00;99.90;;;;;;5045207;28;20235;-80
2023/01/26 07:22:29;;;;;;;9.30;4.50;;;28.00;99.90;;;;;;5052717;28;22413;-80
2023/01/26 07:25:02;;;;;;;8.65;4.57;;;27.90;99.90;;;;;;5046995;28;20211;-80
2023/01/26 07:27:33;;;;;;;7.15;4.05;;;27.90;99.90;;;;;;5046518;28;20204;-79
2023/01/26 07:30:04;;;;;;;5.50;3.58;;;27.90;99.90;;;;;;5048461;28;20669;-80
2023/01/26 07:32:35;;;;;;;9.13;4.30;;;27.90;99.90;;;;;;5050592;28;20227;-80
2023/01/26 07:35:08;;;;;;;9.77;6.97;;;27.90;99.90;;;;;;5046255;28;20579;-82
2023/01/26 07:37:41;;;;;;;12.10;6.00;;;27.90;99.90;;;;;;5045802;28;20247;-80
2023/01/26 07:40:13;;;;;;;16.98;12.30;;;27.90;99.90;;;;;;5048016;28;20207;-80
2023/01/26 07:42:45;;;;;;;12.18;6.88;;;28.00;99.90;;;;;;5046959;28;20210;-80
2023/01/26 07:45:16;;;;;;;9.50;4.10;;;28.00;99.90;;;;;;5045990;28;20428;-80
2023/01/26 07:47:48;;;;;;;9.00;3.60;;;28.10;99.90;;;;;;5046394;28;20236;-81
2023/01/26 07:50:20;;;;;;;9.68;3.92;;;28.10;99.90;;;;;;5046239;28;20204;-80
2023/01/26 07:52:53;;;;;;;6.25;3.65;;;28.10;99.90;;;;;;5054494;28;20269;-81
2023/01/26 07:55:25;;;;;;;11.35;6.40;;;28.00;99.90;;;;;;5047365;28;20253;-80
2023/01/26 07:57:56;;;;;;;7.38;3.85;;;28.00;99.90;;;;;;5045895;28;20211;-80
2023/01/26 08:00:27;;;;;;;8.50;4.07;;;28.00;99.90;;;;;;5045663;28;20199;-81
2023/01/26 08:02:58;;;;;;;10.95;4.80;;;27.90;99.90;;;;;;5047176;28;20203;-79
2023/01/26 08:05:29;;;;;;;10.43;5.10;;;27.90;99.90;;;;;;5050825;28;20196;-79
2023/01/26 08:08:03;;;;;;;9.70;3.78;;;27.90;99.90;;;;;;5055444;28;20283;-80
2023/01/26 08:10:34;;;;;;;7.88;3.80;;;27.90;99.90;;;;;;5045011;28;20206;-81
2023/01/26 08:13:06;;;;;;;6.80;3.72;;;27.80;99.90;;;;;;5045400;28;20223;-81
2023/01/26 08:15:37;;;;;;;8.95;3.08;;;27.70;99.90;;;;;;5045472;28;20204;-81
2023/01/26 08:18:08;;;;;;;7.68;3.28;;;27.60;99.90;;;;;;5047711;28;20629;-80
2023/01/26 08:20:39;;;;;;;9.80;3.20;;;27.60;99.90;;;;;;5048144;28;20200;-81
2023/01/26 08:23:18;;;;;;;12.93;4.68;;;27.60;99.90;;;;;;5051489;28;20200;-81
2023/01/26 08:25:52;;;;;;;9.35;4.80;;;27.60;99.90;;;;;;5061770;28;20206;-82
2023/01/26 08:28:23;;;;;;;8.77;4.05;;;27.50;99.90;;;;;;5066550;28;20259;-80
2023/01/26 08:30:54;;;;;;;7.65;3.70;;;27.50;99.90;;;;;;5051878;28;20207;-81
2023/01/26 08:33:25;;;;;;;11.00;3.67;;;27.50;99.90;;;;;;5056391;28;20227;-80
2023/01/26 08:36:02;;;;;;;6.68;3.38;;;27.50;99.90;;;;;;5050194;28;20200;-80
2023/01/26 08:38:36;;;;;;;8.43;3.70;;;27.40;99.90;;;;;;5049597;28;20712;-81
2023/01/26 08:41:07;;;;;;;9.48;4.95;;;27.30;99.90;;;;;;5055004;28;20206;-81
2023/01/26 08:43:39;;;;;;;9.60;3.88;;;27.30;99.90;;;;;;5053648;28;20934;-80
2023/01/26 08:46:10;;;;;;;6.00;3.33;;;27.30;99.90;;;;;;5055906;28;20219;-80
2023/01/26 08:48:41;;;;;;;6.50;3.55;;;27.30;99.90;;;;;;5051853;28;20218;-79
2023/01/26 08:51:12;;;;;;;10.65;4.15;;;27.20;99.90;;;;;;5051591;28;20508;-79
2023/01/26 08:53:46;;;;;;;7.82;4.13;;;27.30;99.90;;;;;;5051519;28;20199;-82
2023/01/26 08:56:17;;;;;;;7.28;3.92;;;27.30;99.90;;;;;;5051642;28;21031;-79
2023/01/26 08:58:48;;;;;;;9.15;3.60;;;27.30;99.90;;;;;;5053686;28;20317;-80
2023/01/26 09:01:19;;;;;;;6.70;3.83;;;27.30;99.90;;;;;;5053080;28;20499;-79
2023/01/26 09:03:51;;;;;;;13.05;4.57;;;27.40;99.90;;;;;;5055188;28;20287;-80
2023/01/26 09:06:23;;;;;;;10.90;4.65;;;27.40;99.90;;;;;;5063159;28;20223;-80
2023/01/26 09:08:56;;;;;;;7.65;4.40;;;27.30;99.90;;;;;;5052366;28;20301;-79
2023/01/26 09:11:28;;;;;;;11.73;4.50;;;27.30;99.90;;;;;;5050115;28;20204;-79
2023/01/26 09:13:59;;;;;;;9.10;4.50;;;27.20;99.90;;;;;;5048980;28;20293;-80
2023/01/26 09:16:30;;;;;;;8.13;4.93;;;27.10;99.90;;;;;;5051922;28;20649;-79
2023/01/26 09:19:02;;;;;;;13.20;5.90;;;27.10;99.90;;;;;;5053494;28;20245;-80
2023/01/26 09:21:33;;;;;;;10.02;5.50;;;27.10;99.90;;;;;;5056204;28;20919;-80
2023/01/26 09:24:09;;;;;;;10.55;4.80;;;27.10;99.90;;;;;;5051814;28;20195;-80
2023/01/26 09:26:40;;;;;;;9.23;4.40;;;27.00;99.90;;;;;;5050803;28;20210;-81
2023/01/26 09:29:11;;;;;;;12.40;4.85;;;27.00;99.90;;;;;;5052379;28;20227;-80
2023/01/26 09:31:42;;;;;;;9.20;4.82;;;26.90;99.90;;;;;;5051462;28;20264;-81
2023/01/26 09:34:14;;;;;;;12.40;5.00;;;26.90;99.90;;;;;;5053246;28;20226;-80
2023/01/26 09:36:45;;;;;;;13.02;5.20;;;26.90;99.90;;;;;;5052632;28;20199;-80
2023/01/26 09:39:18;;;;;;;12.63;4.82;;;26.90;99.90;;;;;;5051776;28;20200;-79
2023/01/26 09:42:09;;;;;;;11.23;4.50;;;26.90;99.90;;;;;;5054048;28;20200;-80
2023/01/26 09:44:45;;;;;;;10.20;4.60;;;26.90;99.90;;;;;;5050162;28;20207;-79
2023/01/26 09:47:23;;;;;;;7.63;4.18;;;26.80;99.90;;;;;;5050033;28;20226;-80
2023/01/26 09:50:00;;;;;;;11.43;4.68;;;26.80;99.90;;;;;;5051554;28;20207;-79
2023/01/26 09:52:34;;;;;;;8.95;4.18;;;26.70;99.90;;;;;;5050616;28;20215;-80
2023/01/26 09:55:14;;;;;;;11.57;3.95;;;26.70;99.90;;;;;;5054179;28;21719;-80
2023/01/26 09:57:49;;;;;;;8.23;4.20;;;26.70;99.90;;;;;;5053950;28;20230;-81
2023/01/26 10:00:25;;;;;;;10.07;4.25;;;26.70;99.90;;;;;;5052044;28;20225;-80
2023/01/26 10:03:15;;;;;;;9.88;4.47;;;26.60;99.90;;;;;;5052601;28;20271;-79
2023/01/26 10:05:53;;;;;;;5.43;3.47;;;26.60;99.90;;;;;;5056681;28;20259;-80
2023/01/26 10:08:25;;;;;;;8.35;4.00;;;26.60;99.90;;;;;;5048980;28;20576;-80
2023/01/26 10:11:04;;;;;;;10.93;4.13;;;26.60;99.90;;;;;;5048078;28;20196;-80
2023/01/26 10:13:38;;;;;;;8.45;4.30;;;26.60;99.90;;;;;;5044402;28;20227;-80
2023/01/26 10:16:13;;;;;;;9.00;4.50;;;26.60;99.90;;;;;;5045071;28;20195;-80
2023/01/26 10:18:58;;;;;;;12.30;4.90;;;26.50;99.90;;;;;;5050036;28;20227;-80
2023/01/26 10:21:39;;;;;;;13.18;4.75;;;26.60;99.90;;;;;;5063391;28;20201;-80
2023/01/26 10:24:13;;;;;;;16.17;5.55;;;26.50;99.90;;;;;;5058588;28;20198;-81
2023/01/26 10:27:03;;;;;;;15.27;5.53;;;26.60;99.90;;;;;;5061736;28;20830;-80
2023/01/26 10:29:34;;;;;;;19.63;6.07;;;26.60;99.90;;;;;;5064470;28;20230;-79
2023/01/26 10:32:06;;;;;;;19.42;6.22;;;26.60;99.90;;;;;;5066143;28;20249;-80
2023/01/26 10:34:45;;;;;;;20.70;6.20;;;26.50;99.90;;;;;;5053285;28;20203;-79
2023/01/26 10:37:25;;;;;;;23.48;6.63;;;26.60;99.90;;;;;;5065282;28;20257;-77
2023/01/26 10:40:03;;;;;;;21.20;7.15;;;26.50;99.90;;;;;;5061364;28;20286;-81
2023/01/26 10:42:38;;;;;;;24.67;6.95;;;26.50;99.90;;;;;;5057590;28;20203;-80
2023/01/26 10:45:27;;;;;;;23.02;6.88;;;26.50;99.90;;;;;;5070738;28;20688;-80
2023/01/26 10:48:23;;;;;;;22.73;6.78;;;26.40;99.90;;;;;;5065029;28;20196;-79
2023/01/26 10:50:54;;;;;;;30.20;9.73;;;26.30;99.90;;;;;;5064979;28;20215;-81
2023/01/26 10:53:28;;;;;;;27.30;8.68;;;26.30;99.90;;;;;;5055081;28;20706;-80
2023/01/26 10:56:05;;;;;;;26.83;10.00;;;26.20;99.90;;;;;;5062215;28;20196;-79
2023/01/26 10:58:48;;;;;;;25.42;9.00;;;26.10;99.90;;;;;;5071388;28;20200;-79
2023/01/26 11:01:26;;;;;;;29.75;8.93;;;26.00;99.90;;;;;;5053190;28;20904;-80
2023/01/26 11:04:07;;;;;;;24.95;7.85;;;25.90;99.90;;;;;;5059775;28;20212;-81
2023/01/26 11:06:40;;;;;;;23.85;6.70;;;25.90;99.90;;;;;;5053270;28;20196;-81
2023/01/26 11:09:21;;;;;;;32.30;7.13;;;25.80;99.90;;;;;;5052216;28;20196;-80
2023/01/26 11:12:01;;;;;;;28.73;6.70;;;25.80;99.90;;;;;;5053075;28;20255;-81
2023/01/26 11:14:39;;;;;;;23.42;6.00;;;25.70;99.90;;;;;;5056283;28;20200;-80
2023/01/26 11:17:22;;;;;;;25.30;6.05;;;25.70;99.90;;;;;;5057808;28;20260;-79
2023/01/26 11:20:09;;;;;;;25.85;6.53;;;25.60;99.90;;;;;;5056841;28;20298;-80
2023/01/26 11:22:54;;;;;;;26.02;6.03;;;25.50;99.90;;;;;;5051090;28;20237;-80
2023/01/26 11:25:30;;;;;;;20.17;5.82;;;25.50;99.90;;;;;;5050516;28;20204;-79
2023/01/26 11:28:19;;;;;;;23.05;6.03;;;25.50;99.90;;;;;;5050803;28;20218;-80
2023/01/26 11:31:10;;;;;;;23.50;6.03;;;25.50;99.90;;;;;;5049286;28;20207;-81
2023/01/26 11:33:48;;;;;;;24.90;6.00;;;25.40;99.90;;;;;;5050767;28;20340;-80
2023/01/26 11:36:29;;;;;;;33.50;6.70;;;25.50;99.90;;;;;;5049356;28;20200;-80
2023/01/26 11:39:11;;;;;;;30.38;6.63;;;25.50;99.90;;;;;;5050524;28;20200;-79
2023/01/26 11:41:56;;;;;;;27.80;6.65;;;25.40;99.90;;;;;;5051450;28;20227;-80
2023/01/26 11:44:44;;;;;;;25.80;6.10;;;25.40;99.90;;;;;;5053878;28;20215;-80
2023/01/26 11:47:31;;;;;;;28.80;6.43;;;25.40;99.90;;;;;;5052910;28;20206;-80
2023/01/26 11:50:20;;;;;;;29.30;6.50;;;25.30;99.90;;;;;;5054572;28;20227;-80
2023/01/26 11:53:02;;;;;;;29.33;6.30;;;25.30;99.90;;;;;;5053408;28;20239;-81
2023/01/26 11:55:48;;;;;;;30.35;6.05;;;25.20;99.90;;;;;;5051718;28;20769;-81
2023/01/26 11:58:29;;;;;;;26.67;6.00;;;25.20;99.90;;;;;;5051469;28;20207;-80
2023/01/26 12:01:02;;;;;;;26.73;5.40;;;25.20;99.90;;;;;;5052266;28;20293;-81
2023/01/26 12:03:42;;;;;;;23.63;5.72;;;25.10;99.90;;;;;;5050730;28;20203;-80
2023/01/26 12:06:18;;;;;;;23.27;6.05;;;25.10;99.90;;;;;;5058333;28;20195;-80
2023/01/26 12:08:54;;;;;;;21.73;5.50;;;25.10;99.90;;;;;;5046128;28;20187;-80
2023/01/26 12:11:32;;;;;;;24.90;5.10;;;25.10;99.90;;;;;;5045812;28;20257;-80
2023/01/26 12:14:14;;;;;;;22.25;5.45;;;25.10;99.90;;;;;;5045686;28;21681;-81
2023/01/26 12:16:59;;;;;;;25.42;5.75;;;25.10;99.90;;;;;;5046336;28;20695;-80
2023/01/26 12:19:46;;;;;;;23.48;5.18;;;25.00;99.90;;;;;;5049972;28;20235;-80
2023/01/26 12:22:21;;;;;;;30.33;5.70;;;25.00;99.90;;;;;;5046594;28;20381;-79
2023/01/26 12:24:56;;;;;;;29.65;6.05;;;25.00;99.90;;;;;;5045606;28;20199;-80
2023/01/26 12:27:35;;;;;;;19.98;5.18;;;25.00;99.90;;;;;;5044954;28;20203;-80
2023/01/26 12:30:25;;;;;;;24.83;5.57;;;25.00;99.90;;;;;;5056113;28;20199;-79
2023/01/26 12:32:56;;;;;;;25.70;5.22;;;25.10;99.90;;;;;;5048847;28;20220;-80
2023/01/26 12:35:42;;;;;;;25.10;5.45;;;25.00;99.90;;;;;;5047949;28;20617;-80
2023/01/26 12:38:19;;;;;;;23.63;5.30;;;25.00;99.90;;;;;;5046935;28;20295;-80
2023/01/26 12:41:04;;;;;;;21.65;5.25;;;25.00;99.90;;;;;;5049728;28;20206;-80
2023/01/26 12:43:52;;;;;;;22.58;5.10;;;25.00;99.90;;;;;;5049171;28;20202;-80
2023/01/26 12:46:27;;;;;;;14.55;4.47;;;24.90;99.90;;;;;;5049400;28;20559;-80
2023/01/26 12:49:04;;;;;;;20.10;5.35;;;24.90;99.90;;;;;;5050059;28;20215;-80
2023/01/26 12:51:41;;;;;;;16.05;4.80;;;24.90;99.90;;;;;;5051605;28;20750;-80
2023/01/26 12:54:18;;;;;;;21.73;4.70;;;24.90;99.90;;;;;;5051703;28;20362;-80
2023/01/26 12:56:54;;;;;;;23.45;4.70;;;24.90;99.90;;;;;;5056027;28;20213;-79
2023/01/26 12:59:32;;;;;;;22.67;5.03;;;24.80;99.90;;;;;;5050188;28;20671;-80
2023/01/26 13:02:11;;;;;;;20.38;4.40;;;24.80;99.90;;;;;;5049191;28;20206;-79
2023/01/26 13:04:43;;;;;;;17.25;4.32;;;24.80;99.90;;;;;;5050460;28;20202;-79
2023/01/26 13:07:31;;;;;;;20.75;4.55;;;24.80;99.90;;;;;;5053516;28;20677;-79
2023/01/26 13:10:26;;;;;;;16.20;4.57;;;24.80;99.90;;;;;;5049410;28;20218;-80
2023/01/26 13:13:00;;;;;;;18.52;4.60;;;24.80;99.90;;;;;;5041496;28;20223;-79
2023/01/26 13:15:32;;;;;;;18.75;4.68;;;24.80;99.90;;;;;;5045287;28;20195;-80
2023/01/26 13:18:05;;;;;;;21.35;4.35;;;24.80;99.90;;;;;;5051667;28;20200;-80
2023/01/26 13:20:53;;;;;;;18.30;4.80;;;24.70;99.90;;;;;;5045468;28;21498;-80
2023/01/26 13:23:56;;;;;;;15.15;4.15;;;24.70;99.90;;;;;;5043917;28;20208;-79
2023/01/26 13:26:45;;;;;;;19.00;4.30;;;24.70;99.90;;;;;;5047885;28;20200;-80
2023/01/26 13:29:34;;;;;;;20.60;4.90;;;24.80;99.90;;;;;;5044526;28;20223;-80
2023/01/26 13:32:37;;;;;;;16.77;3.97;;;24.80;99.90;;;;;;5045366;28;20196;-79
2023/01/26 13:35:14;;;;;;;12.10;3.42;;;24.80;99.90;;;;;;5024584;28;20202;-81
2023/01/26 13:37:51;;;;;;;15.50;3.97;;;24.80;99.90;;;;;;5045057;28;20191;-81
2023/01/26 13:40:29;;;;;;;15.70;4.00;;;24.80;99.90;;;;;;5047324;28;20200;-81
2023/01/26 13:43:07;;;;;;;21.48;4.70;;;24.80;99.90;;;;;;5045138;28;20202;-81
2023/01/26 13:45:45;;;;;;;13.15;3.80;;;24.70;99.90;;;;;;5044703;28;20200;-80
2023/01/26 13:48:18;;;;;;;16.55;4.50;;;24.70;99.90;;;;;;5043431;28;20196;-79
2023/01/26 13:50:52;;;;;;;19.42;4.45;;;24.70;99.90;;;;;;5044584;28;20559;-79
2023/01/26 13:53:37;;;;;;;18.30;4.35;;;24.70;99.90;;;;;;5044112;28;21531;-80
2023/01/26 13:56:24;;;;;;;13.63;3.83;;;24.70;99.90;;;;;;5044142;28;20200;-80
2023/01/26 13:58:55;;;;;;;21.52;4.70;;;24.70;99.90;;;;;;5043817;28;20226;-79
2023/01/26 14:01:28;;;;;;;23.35;4.60;;;24.70;99.90;;;;;;5051637;28;20196;-80
2023/01/26 14:04:07;;;;;;;12.70;3.63;;;24.70;99.90;;;;;;5043337;28;20196;-81
2023/01/26 14:06:39;;;;;;;22.42;4.03;;;24.70;99.90;;;;;;5047215;28;20199;-80